createdAt,value
2022-11-24T00:00:49.945Z,100.00
2022-11-24T00:03:16.559Z,100.00
2022-11-24T00:05:43.309Z,100.00
2022-11-24T00:08:09.833Z,100.00
2022-11-24T00:10:36.268Z,100.00
2022-11-24T00:13:02.724Z,100.00
2022-11-24T00:15:29.199Z,100.00
2022-11-24T00:17:55.642Z,100.00
2022-11-24T00:20:22.091Z,100.00
2022-11-24T00:22:48.612Z,100.00
2022-11-24T00:25:15.211Z,100.00
2022-11-24T00:27:41.676Z,100.00
2022-11-24T00:30:09.809Z,100.00
2022-11-24T00:32:36.285Z,100.00
2022-11-24T00:35:02.810Z,100.00
2022-11-24T00:37:29.310Z,100.00
2022-11-24T00:39:55.812Z,100.00
2022-11-24T00:42:22.267Z,100.00
2022-11-24T00:44:48.696Z,100.00
2022-11-24T00:47:15.210Z,100.00
2022-11-24T00:49:41.692Z,100.00
2022-11-24T00:52:08.327Z,100.00
2022-11-24T00:54:35.151Z,100.00
2022-11-24T00:57:01.787Z,100.00
2022-11-24T00:59:28.278Z,100.00
2022-11-24T01:01:55.093Z,100.00
2022-11-24T01:04:21.935Z,100.00
2022-11-24T01:06:48.409Z,100.00
2022-11-24T01:09:14.897Z,100.00
2022-11-24T01:11:59.705Z,100.00
2022-11-24T01:14:26.190Z,100.00
2022-11-24T01:16:53.360Z,100.00
2022-11-24T01:19:20.340Z,100.00
2022-11-24T01:21:47.141Z,100.00
2022-11-24T01:24:14.071Z,100.00
2022-11-24T01:26:41.364Z,100.00
2022-11-24T01:29:09.352Z,100.00
2022-11-24T01:31:37.001Z,100.00
2022-11-24T01:34:03.918Z,100.00
2022-11-24T01:36:30.443Z,100.00
2022-11-24T01:38:56.875Z,100.00
2022-11-24T01:41:24.842Z,100.00
2022-11-24T01:43:53.242Z,100.00
2022-11-24T01:46:31.144Z,100.00
2022-11-24T01:49:13.216Z,100.00
2022-11-24T01:51:42.066Z,100.00
2022-11-24T01:54:13.998Z,100.00
2022-11-24T01:56:43.931Z,100.00
2022-11-24T01:59:13.321Z,100.00
2022-11-24T02:01:40.225Z,100.00
2022-11-24T02:04:11.456Z,100.00
2022-11-24T02:06:40.799Z,100.00
2022-11-24T02:09:20.932Z,100.00
2022-11-24T02:11:47.642Z,100.00
2022-11-24T02:14:18.018Z,100.00
2022-11-24T02:16:49.077Z,100.00
2022-11-24T02:19:25.660Z,100.00
2022-11-24T02:21:52.131Z,100.00
2022-11-24T02:24:30.214Z,100.00
2022-11-24T02:26:56.759Z,100.00
2022-11-24T02:29:23.364Z,100.00
2022-11-24T02:31:55.013Z,100.00
2022-11-24T02:34:21.542Z,100.00
2022-11-24T02:36:48.008Z,100.00
2022-11-24T02:39:15.644Z,100.00
2022-11-24T02:41:46.471Z,100.00
2022-11-24T02:44:15.539Z,100.00
2022-11-24T02:46:42.114Z,100.00
2022-11-24T02:49:08.687Z,100.00
2022-11-24T02:51:35.172Z,100.00
2022-11-24T02:54:01.649Z,100.00
2022-11-24T02:56:28.114Z,100.00
2022-11-24T02:58:54.634Z,100.00
2022-11-24T03:01:21.139Z,100.00
2022-11-24T03:03:47.782Z,100.00
2022-11-24T03:06:14.324Z,100.00
2022-11-24T03:08:40.786Z,100.00
2022-11-24T03:11:07.229Z,100.00
2022-11-24T03:13:33.682Z,100.00
2022-11-24T03:16:00.256Z,100.00
2022-11-24T03:18:26.743Z,100.00
2022-11-24T03:20:53.204Z,100.00
2022-11-24T03:23:19.730Z,100.00
2022-11-24T03:25:46.576Z,100.00
2022-11-24T03:28:13.023Z,100.00
2022-11-24T03:30:39.462Z,100.00
2022-11-24T03:33:07.099Z,100.00
2022-11-24T03:35:33.586Z,100.00
2022-11-24T03:38:00.039Z,100.00
2022-11-24T03:40:26.600Z,100.00
2022-11-24T03:42:53.026Z,100.00
2022-11-24T03:48:07.359Z,100.00
2022-11-24T03:50:33.834Z,100.00
2022-11-24T03:53:00.288Z,100.00
2022-11-24T03:55:26.733Z,100.00
2022-11-24T03:57:53.199Z,100.00
2022-11-24T04:00:19.791Z,100.00
2022-11-24T04:02:48.083Z,100.00
2022-11-24T04:05:15.169Z,100.00
2022-11-24T04:07:41.946Z,100.00
2022-11-24T04:10:08.980Z,100.00
2022-11-24T04:12:44.539Z,100.00
2022-11-24T04:15:19.119Z,100.00
2022-11-24T04:17:47.155Z,100.00
2022-11-24T04:20:14.295Z,100.00
2022-11-24T04:22:40.876Z,100.00
2022-11-24T04:25:08.310Z,100.00
2022-11-24T04:27:36.547Z,100.00
2022-11-24T04:30:07.339Z,100.00
2022-11-24T04:32:33.774Z,100.00
2022-11-24T04:35:00.155Z,100.00
2022-11-24T04:37:26.529Z,100.00
2022-11-24T04:39:54.889Z,100.00
2022-11-24T04:42:21.549Z,100.00
2022-11-24T04:44:47.970Z,100.00
2022-11-24T04:47:21.057Z,100.00
2022-11-24T04:49:49.015Z,100.00
2022-11-24T04:52:16.756Z,100.00
2022-11-24T04:54:43.414Z,100.00
2022-11-24T04:57:16.548Z,100.00
2022-11-24T04:59:43.073Z,100.00
2022-11-24T05:02:10.399Z,100.00
2022-11-24T05:04:37.558Z,100.00
2022-11-24T05:07:04.176Z,100.00
2022-11-24T05:09:54.927Z,100.00
2022-11-24T05:12:17.052Z,100.00
2022-11-24T05:14:43.440Z,100.00
2022-11-24T05:17:09.864Z,100.00
2022-11-24T05:19:36.329Z,100.00
2022-11-24T05:22:02.951Z,100.00
2022-11-24T05:24:29.335Z,100.00
2022-11-24T05:26:55.755Z,100.00
2022-11-24T05:29:22.196Z,100.00
2022-11-24T05:31:48.646Z,100.00
2022-11-24T05:34:15.476Z,100.00
2022-11-24T05:36:54.247Z,100.00
2022-11-24T05:39:21.403Z,100.00
2022-11-24T05:41:47.859Z,100.00
2022-11-24T05:44:14.318Z,100.00
2022-11-24T05:46:40.852Z,100.00
2022-11-24T05:49:07.266Z,100.00
2022-11-24T05:51:34.488Z,100.00
2022-11-24T05:54:00.951Z,100.00
2022-11-24T05:56:27.348Z,100.00
2022-11-24T05:58:53.803Z,100.00
2022-11-24T06:01:20.343Z,100.00
2022-11-24T06:03:46.896Z,100.00
2022-11-24T06:06:13.976Z,100.00
2022-11-24T06:08:40.374Z,100.00
2022-11-24T06:11:18.556Z,100.00
2022-11-24T06:13:46.834Z,100.00
2022-11-24T06:16:13.401Z,100.00
2022-11-24T06:18:40.304Z,100.00
2022-11-24T06:21:11.594Z,100.00
2022-11-24T06:23:38.985Z,100.00
2022-11-24T06:26:05.889Z,100.00
2022-11-24T06:28:32.584Z,100.00
2022-11-24T06:31:02.970Z,100.00
2022-11-24T06:33:36.895Z,100.00
2022-11-24T06:36:06.154Z,100.00
2022-11-24T06:38:34.187Z,100.00
2022-11-24T06:41:02.537Z,100.00
2022-11-24T06:43:30.330Z,100.00
2022-11-24T06:45:57.376Z,100.00
2022-11-24T06:48:24.392Z,100.00
2022-11-24T06:50:51.608Z,100.00
2022-11-24T06:53:18.522Z,100.00
2022-11-24T06:55:46.362Z,100.00
2022-11-24T06:58:13.024Z,100.00
2022-11-24T07:00:39.673Z,100.00
2022-11-24T07:03:06.228Z,100.00
2022-11-24T07:05:32.829Z,100.00
2022-11-24T07:08:00.514Z,100.00
2022-11-24T07:10:27.206Z,100.00
2022-11-24T07:12:53.671Z,100.00
2022-11-24T07:15:20.146Z,100.00
2022-11-24T07:17:46.595Z,100.00
2022-11-24T07:20:12.989Z,100.00
2022-11-24T07:22:39.378Z,100.00
2022-11-24T07:25:07.396Z,100.00
2022-11-24T07:27:33.865Z,100.00
2022-11-24T07:30:00.298Z,100.00
2022-11-24T07:32:26.778Z,100.00
2022-11-24T07:34:53.205Z,100.00
2022-11-24T07:37:19.599Z,100.00
2022-11-24T07:39:46.158Z,100.00
2022-11-24T07:42:12.696Z,100.00
2022-11-24T07:44:40.575Z,100.00
2022-11-24T07:47:07.015Z,100.00
2022-11-24T07:49:33.643Z,100.00
2022-11-24T07:52:00.946Z,100.00
2022-11-24T07:54:27.492Z,100.00
2022-11-24T07:56:53.979Z,100.00
2022-11-24T07:59:20.476Z,100.00
2022-11-24T08:01:46.990Z,100.00
2022-11-24T08:04:13.556Z,100.00
2022-11-24T08:06:44.669Z,100.00
2022-11-24T08:09:13.626Z,100.00
2022-11-24T08:11:40.033Z,100.00
2022-11-24T08:14:06.547Z,100.00
2022-11-24T08:16:33.145Z,100.00
2022-11-24T08:18:59.728Z,100.00
2022-11-24T08:21:26.375Z,100.00
2022-11-24T08:23:56.956Z,100.00
2022-11-24T08:26:25.070Z,100.00
2022-11-24T08:28:57.516Z,100.00
2022-11-24T08:31:27.106Z,100.00
2022-11-24T08:33:55.821Z,100.00
2022-11-24T08:36:22.231Z,100.00
2022-11-24T08:38:49.677Z,100.00
2022-11-24T08:41:17.552Z,100.00
2022-11-24T08:43:44.771Z,100.00
2022-11-24T08:46:14.182Z,100.00
2022-11-24T08:48:41.585Z,100.00
2022-11-24T08:51:11.536Z,100.00
2022-11-24T08:53:38.846Z,100.00
2022-11-24T08:56:05.941Z,100.00
2022-11-24T08:58:32.897Z,100.00
2022-11-24T09:01:13.802Z,100.00
2022-11-24T09:03:46.328Z,100.00
2022-11-24T09:06:18.371Z,100.00
2022-11-24T09:08:44.855Z,100.00
2022-11-24T09:11:14.152Z,100.00
2022-11-24T09:13:41.305Z,100.00
2022-11-24T09:16:13.840Z,100.00
2022-11-24T09:18:40.984Z,100.00
2022-11-24T09:21:15.973Z,100.00
2022-11-24T09:23:43.437Z,100.00
2022-11-24T09:26:13.133Z,100.00
2022-11-24T09:28:40.819Z,100.00
2022-11-24T09:31:10.240Z,100.00
2022-11-24T09:33:38.025Z,100.00
2022-11-24T09:36:05.824Z,100.00
2022-11-24T09:38:33.009Z,100.00
2022-11-24T09:41:17.891Z,100.00
2022-11-24T09:44:03.256Z,100.00
2022-11-24T09:46:49.077Z,100.00
2022-11-24T09:49:24.154Z,100.00
2022-11-24T09:51:54.933Z,100.00
2022-11-24T09:54:28.643Z,100.00
2022-11-24T09:56:59.781Z,100.00
2022-11-24T09:59:27.486Z,100.00
2022-11-24T10:01:55.706Z,100.00
2022-11-24T10:04:27.444Z,100.00
2022-11-24T10:07:12.125Z,100.00
2022-11-24T10:09:53.162Z,100.00
2022-11-24T10:12:28.372Z,100.00
2022-11-24T10:15:01.527Z,100.00
2022-11-24T10:17:34.587Z,100.00
2022-11-24T10:20:21.712Z,100.00
2022-11-24T10:23:20.819Z,100.00
2022-11-24T10:26:00.748Z,100.00
2022-11-24T10:28:44.913Z,100.00
2022-11-24T10:31:24.064Z,100.00
2022-11-24T10:33:51.234Z,100.00
2022-11-24T10:36:29.886Z,100.00
2022-11-24T10:39:10.917Z,100.00
2022-11-24T10:42:15.792Z,100.00
2022-11-24T10:44:43.011Z,100.00
2022-11-24T10:47:22.502Z,100.00
2022-11-24T10:49:58.036Z,100.00
2022-11-24T10:52:25.595Z,100.00
2022-11-24T10:54:57.959Z,100.00
2022-11-24T10:57:53.650Z,100.00
2022-11-24T11:00:20.041Z,100.00
2022-11-24T11:02:48.861Z,100.00
2022-11-24T11:05:44.074Z,99.85
2022-11-24T11:08:17.202Z,99.10
2022-11-24T11:10:44.624Z,97.76
2022-11-24T11:13:31.204Z,97.61
2022-11-24T11:15:59.072Z,97.25
2022-11-24T11:18:31.920Z,96.98
2022-11-24T11:21:02.074Z,96.96
2022-11-24T11:23:32.270Z,96.90
2022-11-24T11:26:38.547Z,97.21
2022-11-24T11:35:02.664Z,96.49
2022-11-24T11:37:32.789Z,96.61
2022-11-24T11:40:00.273Z,96.28
2022-11-24T11:43:00.653Z,96.40
2022-11-24T11:45:27.831Z,95.46
2022-11-24T11:48:07.624Z,95.30
2022-11-24T11:51:21.129Z,95.04
2022-11-24T11:53:47.045Z,94.59
2022-11-24T11:56:13.975Z,94.79
2022-11-24T11:58:53.463Z,94.95
2022-11-24T12:01:56.932Z,94.94
2022-11-24T12:04:52.631Z,94.35
2022-11-24T12:07:41.732Z,94.04
2022-11-24T12:10:40.626Z,94.41
2022-11-24T12:13:16.038Z,93.73
2022-11-24T12:15:51.712Z,93.86
2022-11-24T12:18:59.140Z,93.44
2022-11-24T12:21:52.943Z,93.40
2022-11-24T12:24:35.398Z,93.58
2022-11-24T12:27:17.987Z,93.31
2022-11-24T12:30:10.622Z,92.88
2022-11-24T12:32:36.954Z,92.72
2022-11-24T12:35:29.455Z,92.59
2022-11-24T12:38:02.522Z,92.04
2022-11-24T12:40:51.356Z,91.92
2022-11-24T12:43:30.283Z,92.07
2022-11-24T12:46:15.569Z,91.42
2022-11-24T12:48:52.756Z,91.94
2022-11-24T12:51:25.356Z,91.89
2022-11-24T12:53:53.583Z,92.18
2022-11-24T12:56:29.128Z,92.16
2022-11-24T12:59:20.778Z,92.27
2022-11-24T13:01:56.991Z,92.06
2022-11-24T13:04:40.990Z,92.66
2022-11-24T13:07:12.324Z,92.72
2022-11-24T13:10:16.995Z,92.54
2022-11-24T13:13:06.004Z,92.24
2022-11-24T13:18:53.804Z,92.67
2022-11-24T13:21:31.357Z,92.23
2022-11-24T13:23:59.920Z,91.73
2022-11-24T13:26:41.491Z,91.79
2022-11-24T13:29:31.357Z,91.18
2022-11-24T13:32:00.780Z,91.20
2022-11-24T13:34:39.584Z,91.82
2022-11-24T13:37:33.912Z,90.92
2022-11-24T13:40:11.401Z,90.84
2022-11-24T13:42:56.351Z,91.57
2022-11-24T13:45:45.221Z,91.15
2022-11-24T13:48:21.177Z,91.11
2022-11-24T13:50:50.988Z,91.10
2022-11-24T13:53:45.507Z,90.98
2022-11-24T13:56:11.844Z,90.31
2022-11-24T13:58:40.381Z,90.41
2022-11-24T14:01:24.123Z,90.87
2022-11-24T14:04:28.499Z,90.36
2022-11-24T14:07:07.471Z,90.24
2022-11-24T14:09:44.800Z,90.60
2022-11-24T14:12:23.231Z,90.32
2022-11-24T14:14:52.459Z,90.17
2022-11-24T14:17:24.620Z,89.99
2022-11-24T14:20:00.065Z,90.68
2022-11-24T14:22:34.541Z,90.23
2022-11-24T14:25:02.515Z,90.42
2022-11-24T14:27:38.574Z,90.35
2022-11-24T14:30:18.762Z,90.48
2022-11-24T14:33:02.136Z,90.43
2022-11-24T14:35:30.338Z,90.16
2022-11-24T14:37:57.173Z,89.79
2022-11-24T14:40:41.672Z,90.53
2022-11-24T14:43:21.331Z,90.39
2022-11-24T14:45:53.766Z,90.53
2022-11-24T14:48:25.104Z,91.13
2022-11-24T14:50:52.435Z,90.92
2022-11-24T14:53:26.247Z,90.88
2022-11-24T14:56:20.944Z,91.16
2022-11-24T14:58:47.438Z,91.40
2022-11-24T15:01:29.533Z,91.68
2022-11-24T15:07:25.813Z,91.57
2022-11-24T15:09:58.435Z,91.75
2022-11-24T15:12:40.698Z,91.87
2022-11-24T15:15:22.573Z,92.18
2022-11-24T15:17:52.446Z,92.16
2022-11-24T15:20:43.154Z,92.28
2022-11-24T15:23:22.798Z,92.54
2022-11-24T15:26:11.814Z,92.91
2022-11-24T15:28:38.788Z,92.96
2022-11-24T15:31:09.586Z,92.94
2022-11-24T15:33:36.100Z,92.86
2022-11-24T15:36:02.562Z,93.02
2022-11-24T15:38:28.937Z,92.99
2022-11-24T15:40:58.260Z,93.03
2022-11-24T15:43:34.917Z,93.25
2022-11-24T15:46:02.725Z,93.50
2022-11-24T15:48:29.858Z,93.50
2022-11-24T15:50:57.946Z,93.92
2022-11-24T15:53:32.565Z,93.91
2022-11-24T15:56:01.563Z,94.20
2022-11-24T15:58:28.036Z,94.51
2022-11-24T16:00:54.698Z,94.72
2022-11-24T16:06:16.728Z,95.04
2022-11-24T16:08:45.827Z,95.24
2022-11-24T16:11:12.510Z,95.56
2022-11-24T16:13:38.965Z,95.70
2022-11-24T16:16:05.938Z,96.12
2022-11-24T16:18:32.479Z,96.07
2022-11-24T16:20:58.924Z,96.16
2022-11-24T16:23:25.354Z,96.22
2022-11-24T16:25:52.108Z,97.28
2022-11-24T16:28:20.404Z,96.51
2022-11-24T16:30:50.661Z,96.43
2022-11-24T16:33:17.480Z,96.44
2022-11-24T16:35:47.395Z,96.51
2022-11-24T16:38:20.102Z,96.32
2022-11-24T16:40:54.601Z,96.39
2022-11-24T16:43:21.298Z,96.67
2022-11-24T16:46:21.254Z,96.57
2022-11-24T16:48:50.008Z,96.30
2022-11-24T16:51:17.493Z,96.64
2022-11-24T16:53:44.000Z,96.88
2022-11-24T16:56:10.968Z,96.61
2022-11-24T16:58:39.057Z,96.57
2022-11-24T17:01:07.458Z,96.62
2022-11-24T17:03:37.406Z,96.70
2022-11-24T17:06:06.178Z,96.83
2022-11-24T17:08:34.820Z,96.74
2022-11-24T17:11:15.651Z,96.80
2022-11-24T17:13:43.062Z,96.81
2022-11-24T17:16:12.193Z,96.97
2022-11-24T17:18:39.099Z,97.03
2022-11-24T17:21:09.804Z,97.19
2022-11-24T17:23:37.110Z,97.22
2022-11-24T17:26:22.088Z,97.33
2022-11-24T17:28:48.794Z,97.30
2022-11-24T17:31:22.599Z,97.37
2022-11-24T17:33:50.362Z,97.27
2022-11-24T17:36:17.286Z,97.31
2022-11-24T17:38:43.730Z,97.44
2022-11-24T17:41:11.206Z,97.18
2022-11-24T17:43:37.731Z,97.43
2022-11-24T17:46:05.271Z,97.35
2022-11-24T17:48:32.561Z,97.45
2022-11-24T17:51:13.161Z,97.45
2022-11-24T17:53:41.809Z,97.57
2022-11-24T17:56:12.783Z,97.62
2022-11-24T17:58:42.846Z,97.60
2022-11-24T18:01:10.377Z,97.80
2022-11-24T18:03:38.608Z,97.70
2022-11-24T18:06:09.017Z,97.98
2022-11-24T18:08:37.240Z,97.83
2022-11-24T18:11:12.393Z,97.78
2022-11-24T18:16:28.016Z,97.76
2022-11-24T18:19:07.957Z,97.85
2022-11-24T18:21:35.132Z,97.96
2022-11-24T18:24:01.730Z,97.55
2022-11-24T18:26:28.121Z,97.77
2022-11-24T18:28:54.565Z,97.66
2022-11-24T18:31:22.191Z,97.33
2022-11-24T18:33:48.761Z,97.13
2022-11-24T18:36:18.326Z,96.88
2022-11-24T18:38:44.925Z,96.79
2022-11-24T18:41:13.944Z,96.78
2022-11-24T18:43:40.731Z,96.57
2022-11-24T18:46:17.632Z,96.42
2022-11-24T18:48:44.955Z,96.42
2022-11-24T18:51:15.013Z,96.30
2022-11-24T18:53:46.228Z,96.24
2022-11-24T18:56:16.729Z,96.01
2022-11-24T18:58:43.970Z,96.11
2022-11-24T19:01:15.996Z,95.96
2022-11-24T19:03:49.061Z,95.92
2022-11-24T19:06:24.379Z,95.85
2022-11-24T19:08:53.525Z,95.78
2022-11-24T19:11:23.219Z,95.61
2022-11-24T19:13:50.172Z,95.46
2022-11-24T19:16:18.477Z,95.55
2022-11-24T19:18:48.936Z,95.40
2022-11-24T19:21:19.739Z,95.45
2022-11-24T19:23:46.571Z,95.31
2022-11-24T19:26:13.158Z,95.37
2022-11-24T19:28:39.592Z,95.11
2022-11-24T19:31:10.247Z,95.20
2022-11-24T19:33:36.839Z,95.04
2022-11-24T19:36:14.950Z,95.07
2022-11-24T19:38:42.302Z,94.82
2022-11-24T19:41:11.330Z,94.95
2022-11-24T19:43:38.423Z,94.88
2022-11-24T19:46:13.028Z,94.91
2022-11-24T19:48:42.921Z,94.77
2022-11-24T19:51:32.905Z,94.78
2022-11-24T19:53:59.754Z,94.62
2022-11-24T19:56:28.540Z,94.43
2022-11-24T19:58:55.505Z,94.37
2022-11-24T20:01:27.083Z,94.25
2022-11-24T20:03:58.744Z,94.27
2022-11-24T20:06:31.122Z,94.32
2022-11-24T20:09:00.282Z,94.27
2022-11-24T20:11:27.931Z,94.38
2022-11-24T20:13:54.570Z,94.16
2022-11-24T20:16:28.089Z,94.08
2022-11-24T20:18:56.525Z,94.21
2022-11-24T20:21:25.400Z,94.24
2022-11-24T20:24:10.839Z,94.44
2022-11-24T20:26:41.844Z,94.05
2022-11-24T20:29:12.057Z,94.20
2022-11-24T20:31:44.881Z,94.03
2022-11-24T20:34:14.866Z,93.95
2022-11-24T20:36:43.330Z,93.93
2022-11-24T20:39:19.106Z,93.99
2022-11-24T20:41:45.554Z,93.91
2022-11-24T20:44:15.259Z,93.81
2022-11-24T20:46:43.843Z,93.71
2022-11-24T20:49:18.944Z,93.93
2022-11-24T20:51:47.570Z,93.66
2022-11-24T20:54:16.405Z,93.60
2022-11-24T20:56:44.292Z,93.59
2022-11-24T20:59:16.687Z,93.65
2022-11-24T21:01:45.497Z,93.52
2022-11-24T21:04:15.838Z,93.38
2022-11-24T21:06:42.313Z,93.67
2022-11-24T21:09:09.356Z,93.43
2022-11-24T21:11:36.904Z,93.31
2022-11-24T21:14:03.752Z,93.44
2022-11-24T21:16:32.414Z,93.50
2022-11-24T21:19:01.013Z,93.55
2022-11-24T21:21:33.851Z,93.47
2022-11-24T21:24:04.492Z,93.50
2022-11-24T21:26:30.945Z,93.29
2022-11-24T21:28:57.889Z,93.26
2022-11-24T21:31:24.475Z,93.46
2022-11-24T21:33:53.167Z,93.32
2022-11-24T21:36:23.688Z,93.47
2022-11-24T21:38:57.655Z,93.28
2022-11-24T21:41:26.079Z,93.44
2022-11-24T21:43:55.750Z,93.22
2022-11-24T21:46:22.574Z,93.44
2022-11-24T21:48:49.174Z,93.49
2022-11-24T21:51:17.770Z,93.65
2022-11-24T21:53:45.362Z,93.64
2022-11-24T21:56:17.182Z,93.74
2022-11-24T21:58:44.755Z,93.97
2022-11-24T22:01:11.683Z,93.76
2022-11-24T22:03:38.245Z,93.95
2022-11-24T22:06:05.325Z,94.08
2022-11-24T22:08:32.021Z,93.88
2022-11-24T22:11:13.570Z,93.98
2022-11-24T22:13:40.948Z,94.14
2022-11-24T22:16:19.386Z,94.45
2022-11-24T22:18:46.650Z,94.16
2022-11-24T22:21:15.334Z,93.91
2022-11-24T22:23:42.765Z,93.99
2022-11-24T22:26:15.187Z,93.97
2022-11-24T22:28:42.851Z,94.02
2022-11-24T22:31:18.059Z,94.02
2022-11-24T22:33:44.912Z,94.27
2022-11-24T22:36:13.111Z,94.30
2022-11-24T22:38:40.511Z,94.36
2022-11-24T22:41:10.024Z,94.34
2022-11-24T22:43:38.962Z,94.45
2022-11-24T22:46:11.110Z,94.41
2022-11-24T22:48:38.384Z,94.41
2022-11-24T22:51:09.353Z,94.33
2022-11-24T22:53:35.786Z,94.37
2022-11-24T22:56:10.931Z,94.38
2022-11-24T22:58:38.426Z,94.59
2022-11-24T23:01:11.317Z,94.66
2022-11-24T23:03:39.015Z,94.63
2022-11-24T23:06:12.334Z,94.81
2022-11-24T23:08:39.293Z,94.95
2022-11-24T23:11:37.654Z,95.13
2022-11-24T23:14:07.165Z,95.29
2022-11-24T23:16:33.668Z,95.07
2022-11-24T23:19:00.143Z,95.68
2022-11-24T23:21:32.081Z,95.38
2022-11-24T23:24:01.330Z,95.51
2022-11-24T23:26:30.564Z,95.89
2022-11-24T23:28:57.735Z,96.13
2022-11-24T23:31:29.485Z,96.60
2022-11-24T23:33:57.482Z,96.29
2022-11-24T23:36:23.913Z,96.85
2022-11-24T23:38:50.454Z,97.04
2022-11-24T23:41:22.246Z,97.43
2022-11-24T23:43:48.853Z,97.18
2022-11-24T23:46:20.244Z,97.89
2022-11-24T23:48:47.552Z,98.43
2022-11-24T23:51:18.394Z,99.08
2022-11-24T23:53:45.674Z,99.46
2022-11-24T23:56:14.615Z,99.70
2022-11-24T23:58:41.438Z,100.00
